sensor_id;sensor_type;location;lat;lon;timestamp;P1;durP1;ratioP1;P2;durP2;ratioP2
35074;SDS011;21260;34.984;32.490;2023-06-26T00:01:50;4.57;;;3.30;;
35074;SDS011;21260;34.984;32.490;2023-06-26T00:04:17;3.58;;;3.10;;
35074;SDS011;21260;34.984;32.490;2023-06-26T00:06:43;5.57;;;3.30;;
35074;SDS011;21260;34.984;32.490;2023-06-26T00:09:09;4.85;;;2.90;;
35074;SDS011;21260;34.984;32.490;2023-06-26T00:11:37;4.50;;;2.90;;
35074;SDS011;21260;34.984;32.490;2023-06-26T00:14:03;3.40;;;3.00;;
35074;SDS011;21260;34.984;32.490;2023-06-26T00:16:29;3.28;;;2.85;;
35074;SDS011;21260;34.984;32.490;2023-06-26T00:18:56;4.07;;;3.10;;
35074;SDS011;21260;34.984;32.490;2023-06-26T00:21:26;3.80;;;2.70;;
35074;SDS011;21260;34.984;32.490;2023-06-26T00:23:52;4.30;;;3.10;;
35074;SDS011;21260;34.984;32.490;2023-06-26T00:26:18;3.63;;;2.97;;
35074;SDS011;21260;34.984;32.490;2023-06-26T00:28:44;3.33;;;2.80;;
35074;SDS011;21260;34.984;32.490;2023-06-26T00:31:10;3.28;;;2.70;;
35074;SDS011;21260;34.984;32.490;2023-06-26T00:33:37;3.90;;;2.83;;
35074;SDS011;21260;34.984;32.490;2023-06-26T00:36:03;4.60;;;2.80;;
35074;SDS011;21260;34.984;32.490;2023-06-26T00:38:29;3.97;;;2.83;;
35074;SDS011;21260;34.984;32.490;2023-06-26T00:40:55;4.53;;;3.00;;
35074;SDS011;21260;34.984;32.490;2023-06-26T00:43:21;5.07;;;2.80;;
35074;SDS011;21260;34.984;32.490;2023-06-26T00:45:48;5.28;;;3.10;;
35074;SDS011;21260;34.984;32.490;2023-06-26T00:48:17;3.70;;;2.80;;
35074;SDS011;21260;34.984;32.490;2023-06-26T00:50:44;4.90;;;2.95;;
35074;SDS011;21260;34.984;32.490;2023-06-26T00:53:10;4.72;;;3.10;;
35074;SDS011;21260;34.984;32.490;2023-06-26T00:55:37;3.60;;;2.90;;
35074;SDS011;21260;34.984;32.490;2023-06-26T00:58:04;3.30;;;3.00;;
35074;SDS011;21260;34.984;32.490;2023-06-26T01:00:33;5.22;;;2.90;;
35074;SDS011;21260;34.984;32.490;2023-06-26T01:02:59;4.63;;;3.00;;
35074;SDS011;21260;34.984;32.490;2023-06-26T01:05:26;5.18;;;2.88;;
35074;SDS011;21260;34.984;32.490;2023-06-26T01:07:54;3.43;;;2.93;;
35074;SDS011;21260;34.984;32.490;2023-06-26T01:10:23;3.97;;;2.70;;
35074;SDS011;21260;34.984;32.490;2023-06-26T01:12:52;3.90;;;2.87;;
35074;SDS011;21260;34.984;32.490;2023-06-26T01:15:19;6.32;;;2.90;;
35074;SDS011;21260;34.984;32.490;2023-06-26T01:17:45;4.30;;;2.83;;
35074;SDS011;21260;34.984;32.490;2023-06-26T01:20:12;4.32;;;2.80;;
35074;SDS011;21260;34.984;32.490;2023-06-26T01:28:17;3.30;;;2.72;;
35074;SDS011;21260;34.984;32.490;2023-06-26T01:30:45;5.13;;;2.80;;
35074;SDS011;21260;34.984;32.490;2023-06-26T01:33:13;3.70;;;2.72;;
35074;SDS011;21260;34.984;32.490;2023-06-26T01:35:40;3.17;;;2.80;;
35074;SDS011;21260;34.984;32.490;2023-06-26T01:38:18;4.68;;;2.80;;
35074;SDS011;21260;34.984;32.490;2023-06-26T01:40:48;4.38;;;2.90;;
35074;SDS011;21260;34.984;32.490;2023-06-26T01:46:24;5.50;;;2.97;;
35074;SDS011;21260;34.984;32.490;2023-06-26T01:55:15;4.30;;;2.90;;
35074;SDS011;21260;34.984;32.490;2023-06-26T01:57:56;3.60;;;2.85;;
35074;SDS011;21260;34.984;32.490;2023-06-26T02:00:23;3.45;;;3.00;;
35074;SDS011;21260;34.984;32.490;2023-06-26T02:02:51;4.82;;;3.20;;
35074;SDS011;21260;34.984;32.490;2023-06-26T02:05:18;5.18;;;3.13;;
35074;SDS011;21260;34.984;32.490;2023-06-26T02:07:44;4.88;;;3.17;;
35074;SDS011;21260;34.984;32.490;2023-06-26T02:10:11;6.50;;;3.08;;
35074;SDS011;21260;34.984;32.490;2023-06-26T02:12:37;6.18;;;2.80;;
35074;SDS011;21260;34.984;32.490;2023-06-26T02:15:04;4.70;;;3.03;;
35074;SDS011;21260;34.984;32.490;2023-06-26T02:17:31;4.82;;;3.17;;
35074;SDS011;21260;34.984;32.490;2023-06-26T02:19:57;4.07;;;2.65;;
35074;SDS011;21260;34.984;32.490;2023-06-26T02:22:24;4.15;;;2.78;;
35074;SDS011;21260;34.984;32.490;2023-06-26T02:24:50;4.27;;;2.97;;
35074;SDS011;21260;34.984;32.490;2023-06-26T02:27:16;3.90;;;2.93;;
35074;SDS011;21260;34.984;32.490;2023-06-26T02:29:42;5.00;;;3.22;;
35074;SDS011;21260;34.984;32.490;2023-06-26T02:32:09;3.90;;;2.63;;
35074;SDS011;21260;34.984;32.490;2023-06-26T02:34:36;5.03;;;2.83;;
35074;SDS011;21260;34.984;32.490;2023-06-26T03:33:54;3.50;;;3.05;;
35074;SDS011;21260;34.984;32.490;2023-06-26T03:36:21;4.82;;;3.20;;
35074;SDS011;21260;34.984;32.490;2023-06-26T03:38:47;3.78;;;3.10;;
35074;SDS011;21260;34.984;32.490;2023-06-26T03:41:13;4.43;;;3.00;;
35074;SDS011;21260;34.984;32.490;2023-06-26T03:43:39;4.32;;;2.90;;
35074;SDS011;21260;34.984;32.490;2023-06-26T03:46:05;4.03;;;3.15;;
35074;SDS011;21260;34.984;32.490;2023-06-26T03:48:32;4.13;;;3.00;;
35074;SDS011;21260;34.984;32.490;2023-06-26T03:50:58;3.72;;;2.80;;
35074;SDS011;21260;34.984;32.490;2023-06-26T03:53:26;4.10;;;3.00;;
35074;SDS011;21260;34.984;32.490;2023-06-26T03:55:52;5.32;;;3.00;;
35074;SDS011;21260;34.984;32.490;2023-06-26T03:58:18;5.07;;;3.00;;
35074;SDS011;21260;34.984;32.490;2023-06-26T04:00:45;3.93;;;3.20;;
35074;SDS011;21260;34.984;32.490;2023-06-26T04:03:12;4.40;;;3.10;;
35074;SDS011;21260;34.984;32.490;2023-06-26T04:05:38;4.65;;;2.92;;
35074;SDS011;21260;34.984;32.490;2023-06-26T04:08:04;3.60;;;2.85;;
35074;SDS011;21260;34.984;32.490;2023-06-26T04:10:31;4.40;;;2.90;;
35074;SDS011;21260;34.984;32.490;2023-06-26T04:12:57;3.33;;;2.92;;
35074;SDS011;21260;34.984;32.490;2023-06-26T04:15:23;3.67;;;3.10;;
35074;SDS011;21260;34.984;32.490;2023-06-26T04:17:49;5.57;;;2.93;;
35074;SDS011;21260;34.984;32.490;2023-06-26T04:20:15;4.88;;;2.95;;
35074;SDS011;21260;34.984;32.490;2023-06-26T04:22:42;3.45;;;2.90;;
35074;SDS011;21260;34.984;32.490;2023-06-26T04:25:08;4.78;;;2.80;;
35074;SDS011;21260;34.984;32.490;2023-06-26T04:27:37;4.05;;;3.20;;
35074;SDS011;21260;34.984;32.490;2023-06-26T04:30:04;3.95;;;3.05;;
35074;SDS011;21260;34.984;32.490;2023-06-26T04:32:31;4.60;;;2.80;;
35074;SDS011;21260;34.984;32.490;2023-06-26T04:34:57;3.40;;;2.90;;
35074;SDS011;21260;34.984;32.490;2023-06-26T04:37:23;4.70;;;2.90;;
35074;SDS011;21260;34.984;32.490;2023-06-26T04:39:50;3.78;;;2.92;;
35074;SDS011;21260;34.984;32.490;2023-06-26T04:42:17;4.30;;;2.70;;
35074;SDS011;21260;34.984;32.490;2023-06-26T04:44:46;3.07;;;2.60;;
35074;SDS011;21260;34.984;32.490;2023-06-26T04:47:13;3.50;;;2.90;;
35074;SDS011;21260;34.984;32.490;2023-06-26T04:49:40;5.38;;;3.10;;
35074;SDS011;21260;34.984;32.490;2023-06-26T04:52:11;3.10;;;2.80;;
35074;SDS011;21260;34.984;32.490;2023-06-26T04:54:40;6.38;;;2.90;;
35074;SDS011;21260;34.984;32.490;2023-06-26T04:57:07;3.00;;;2.70;;
35074;SDS011;21260;34.984;32.490;2023-06-26T04:59:37;7.25;;;3.03;;
35074;SDS011;21260;34.984;32.490;2023-06-26T05:02:03;4.03;;;3.10;;
35074;SDS011;21260;34.984;32.490;2023-06-26T05:04:30;6.47;;;2.70;;
35074;SDS011;21260;34.984;32.490;2023-06-26T05:06:56;4.50;;;2.80;;
35074;SDS011;21260;34.984;32.490;2023-06-26T05:09:23;5.00;;;2.83;;
35074;SDS011;21260;34.984;32.490;2023-06-26T05:11:49;6.82;;;3.15;;
35074;SDS011;21260;34.984;32.490;2023-06-26T05:14:16;4.10;;;2.70;;
35074;SDS011;21260;34.984;32.490;2023-06-26T05:16:42;4.47;;;2.90;;
35074;SDS011;21260;34.984;32.490;2023-06-26T05:19:08;3.03;;;2.72;;
35074;SDS011;21260;34.984;32.490;2023-06-26T05:21:34;3.35;;;2.80;;
35074;SDS011;21260;34.984;32.490;2023-06-26T05:24:01;4.30;;;3.00;;
35074;SDS011;21260;34.984;32.490;2023-06-26T05:26:29;5.43;;;3.07;;
35074;SDS011;21260;34.984;32.490;2023-06-26T05:28:56;5.22;;;2.78;;
35074;SDS011;21260;34.984;32.490;2023-06-26T05:31:23;3.50;;;2.70;;
35074;SDS011;21260;34.984;32.490;2023-06-26T05:33:50;4.40;;;2.75;;
35074;SDS011;21260;34.984;32.490;2023-06-26T05:36:20;3.45;;;2.75;;
35074;SDS011;21260;34.984;32.490;2023-06-26T05:38:49;3.53;;;2.60;;
35074;SDS011;21260;34.984;32.490;2023-06-26T05:41:16;4.65;;;2.90;;
35074;SDS011;21260;34.984;32.490;2023-06-26T05:43:42;4.00;;;2.72;;
35074;SDS011;21260;34.984;32.490;2023-06-26T05:46:08;3.03;;;2.60;;
35074;SDS011;21260;34.984;32.490;2023-06-26T05:48:35;3.08;;;2.70;;
35074;SDS011;21260;34.984;32.490;2023-06-26T06:53:37;4.50;;;3.57;;
35074;SDS011;21260;34.984;32.490;2023-06-26T06:56:03;7.83;;;3.50;;
35074;SDS011;21260;34.984;32.490;2023-06-26T06:58:33;6.68;;;3.40;;
35074;SDS011;21260;34.984;32.490;2023-06-26T07:01:01;5.80;;;3.10;;
35074;SDS011;21260;34.984;32.490;2023-06-26T07:03:28;3.17;;;2.67;;
35074;SDS011;21260;34.984;32.490;2023-06-26T07:05:55;4.90;;;2.90;;
35074;SDS011;21260;34.984;32.490;2023-06-26T07:08:21;4.78;;;3.10;;
35074;SDS011;21260;34.984;32.490;2023-06-26T07:10:47;4.60;;;2.80;;
35074;SDS011;21260;34.984;32.490;2023-06-26T07:13:14;5.97;;;3.42;;
35074;SDS011;21260;34.984;32.490;2023-06-26T07:15:40;3.97;;;3.10;;
35074;SDS011;21260;34.984;32.490;2023-06-26T07:18:06;4.20;;;3.20;;
35074;SDS011;21260;34.984;32.490;2023-06-26T07:20:32;8.33;;;2.90;;
35074;SDS011;21260;34.984;32.490;2023-06-26T07:22:59;4.00;;;3.07;;
35074;SDS011;21260;34.984;32.490;2023-06-26T07:25:25;6.45;;;3.70;;
35074;SDS011;21260;34.984;32.490;2023-06-26T07:27:51;11.63;;;3.90;;
35074;SDS011;21260;34.984;32.490;2023-06-26T07:30:17;5.90;;;3.60;;
35074;SDS011;21260;34.984;32.490;2023-06-26T07:32:44;4.82;;;3.50;;
35074;SDS011;21260;34.984;32.490;2023-06-26T07:35:11;4.55;;;3.28;;
35074;SDS011;21260;34.984;32.490;2023-06-26T07:37:37;5.60;;;3.40;;
35074;SDS011;21260;34.984;32.490;2023-06-26T07:40:04;5.35;;;3.63;;
35074;SDS011;21260;34.984;32.490;2023-06-26T07:42:31;6.43;;;3.55;;
35074;SDS011;21260;34.984;32.490;2023-06-26T07:44:57;4.47;;;3.50;;
35074;SDS011;21260;34.984;32.490;2023-06-26T07:47:24;7.67;;;3.60;;
35074;SDS011;21260;34.984;32.490;2023-06-26T07:49:50;3.88;;;3.05;;
35074;SDS011;21260;34.984;32.490;2023-06-26T07:52:17;5.65;;;3.70;;
35074;SDS011;21260;34.984;32.490;2023-06-26T07:54:44;4.13;;;3.45;;
35074;SDS011;21260;34.984;32.490;2023-06-26T07:57:11;7.33;;;3.87;;
35074;SDS011;21260;34.984;32.490;2023-06-26T07:59:38;5.68;;;3.67;;
35074;SDS011;21260;34.984;32.490;2023-06-26T08:02:04;8.13;;;3.70;;
35074;SDS011;21260;34.984;32.490;2023-06-26T08:04:31;7.82;;;3.83;;
35074;SDS011;21260;34.984;32.490;2023-06-26T08:06:59;5.73;;;3.53;;
35074;SDS011;21260;34.984;32.490;2023-06-26T08:09:27;6.57;;;3.60;;
35074;SDS011;21260;34.984;32.490;2023-06-26T08:11:55;5.10;;;3.60;;
35074;SDS011;21260;34.984;32.490;2023-06-26T08:14:22;9.07;;;4.10;;
35074;SDS011;21260;34.984;32.490;2023-06-26T08:16:49;8.43;;;3.97;;
35074;SDS011;21260;34.984;32.490;2023-06-26T08:19:16;4.47;;;3.40;;
35074;SDS011;21260;34.984;32.490;2023-06-26T08:21:46;5.72;;;3.55;;
35074;SDS011;21260;34.984;32.490;2023-06-26T08:24:13;8.38;;;3.92;;
35074;SDS011;21260;34.984;32.490;2023-06-26T08:26:44;8.38;;;3.95;;
35074;SDS011;21260;34.984;32.490;2023-06-26T08:29:12;10.60;;;3.90;;
35074;SDS011;21260;34.984;32.490;2023-06-26T08:31:39;6.72;;;4.07;;
35074;SDS011;21260;34.984;32.490;2023-06-26T08:34:08;6.13;;;3.50;;
35074;SDS011;21260;34.984;32.490;2023-06-26T08:36:34;5.82;;;3.78;;
35074;SDS011;21260;34.984;32.490;2023-06-26T08:39:00;6.03;;;3.70;;
35074;SDS011;21260;34.984;32.490;2023-06-26T08:41:28;10.05;;;4.07;;
35074;SDS011;21260;34.984;32.490;2023-06-26T08:43:54;7.88;;;3.60;;
35074;SDS011;21260;34.984;32.490;2023-06-26T08:46:20;8.05;;;4.10;;
35074;SDS011;21260;34.984;32.490;2023-06-26T08:48:56;8.10;;;4.35;;
35074;SDS011;21260;34.984;32.490;2023-06-26T08:51:31;8.85;;;3.85;;
35074;SDS011;21260;34.984;32.490;2023-06-26T08:54:02;6.40;;;4.15;;
35074;SDS011;21260;34.984;32.490;2023-06-26T08:56:37;6.73;;;3.87;;
35074;SDS011;21260;34.984;32.490;2023-06-26T08:59:10;6.85;;;4.28;;
35074;SDS011;21260;34.984;32.490;2023-06-26T09:01:39;8.38;;;3.72;;
35074;SDS011;21260;34.984;32.490;2023-06-26T09:04:07;8.50;;;4.30;;
35074;SDS011;21260;34.984;32.490;2023-06-26T09:06:33;8.85;;;4.05;;
35074;SDS011;21260;34.984;32.490;2023-06-26T09:09:00;6.72;;;4.03;;
35074;SDS011;21260;34.984;32.490;2023-06-26T09:11:28;7.38;;;4.50;;
35074;SDS011;21260;34.984;32.490;2023-06-26T09:13:55;7.28;;;4.32;;
35074;SDS011;21260;34.984;32.490;2023-06-26T09:16:25;8.65;;;4.50;;
35074;SDS011;21260;34.984;32.490;2023-06-26T09:18:52;6.50;;;3.88;;
35074;SDS011;21260;34.984;32.490;2023-06-26T09:21:18;8.67;;;4.53;;
35074;SDS011;21260;34.984;32.490;2023-06-26T09:23:46;7.10;;;4.10;;
35074;SDS011;21260;34.984;32.490;2023-06-26T09:26:13;7.35;;;4.30;;
35074;SDS011;21260;34.984;32.490;2023-06-26T09:28:41;6.75;;;3.95;;
35074;SDS011;21260;34.984;32.490;2023-06-26T09:31:08;6.78;;;4.00;;
35074;SDS011;21260;34.984;32.490;2023-06-26T09:33:35;6.60;;;4.25;;
35074;SDS011;21260;34.984;32.490;2023-06-26T09:36:07;8.80;;;4.20;;
35074;SDS011;21260;34.984;32.490;2023-06-26T09:38:37;6.47;;;3.65;;
35074;SDS011;21260;34.984;32.490;2023-06-26T09:41:03;7.28;;;3.90;;
35074;SDS011;21260;34.984;32.490;2023-06-26T09:43:30;10.23;;;4.03;;
35074;SDS011;21260;34.984;32.490;2023-06-26T09:45:57;5.55;;;3.88;;
35074;SDS011;21260;34.984;32.490;2023-06-26T09:48:23;6.60;;;3.92;;
35074;SDS011;21260;34.984;32.490;2023-06-26T09:50:50;6.17;;;3.70;;
35074;SDS011;21260;34.984;32.490;2023-06-26T09:53:16;5.50;;;3.53;;
35074;SDS011;21260;34.984;32.490;2023-06-26T09:55:43;6.53;;;3.83;;
35074;SDS011;21260;34.984;32.490;2023-06-26T09:58:10;5.53;;;3.60;;
35074;SDS011;21260;34.984;32.490;2023-06-26T10:00:40;6.47;;;3.97;;
35074;SDS011;21260;34.984;32.490;2023-06-26T10:03:10;7.35;;;3.92;;
35074;SDS011;21260;34.984;32.490;2023-06-26T10:05:40;7.00;;;3.85;;
35074;SDS011;21260;34.984;32.490;2023-06-26T10:08:06;5.88;;;3.55;;
35074;SDS011;21260;34.984;32.490;2023-06-26T10:10:34;5.80;;;3.50;;
35074;SDS011;21260;34.984;32.490;2023-06-26T10:13:04;5.38;;;3.30;;
35074;SDS011;21260;34.984;32.490;2023-06-26T10:15:47;5.95;;;3.45;;
35074;SDS011;21260;34.984;32.490;2023-06-26T10:18:17;6.28;;;3.30;;
35074;SDS011;21260;34.984;32.490;2023-06-26T10:20:49;4.63;;;3.30;;
35074;SDS011;21260;34.984;32.490;2023-06-26T10:23:20;5.17;;;3.57;;
35074;SDS011;21260;34.984;32.490;2023-06-26T10:25:52;6.20;;;3.53;;
35074;SDS011;21260;34.984;32.490;2023-06-26T10:28:23;6.43;;;3.78;;
35074;SDS011;21260;34.984;32.490;2023-06-26T10:30:51;8.40;;;3.70;;
35074;SDS011;21260;34.984;32.490;2023-06-26T10:33:19;5.72;;;3.67;;
35074;SDS011;21260;34.984;32.490;2023-06-26T10:35:47;7.85;;;3.53;;
35074;SDS011;21260;34.984;32.490;2023-06-26T10:38:14;5.90;;;3.45;;
35074;SDS011;21260;34.984;32.490;2023-06-26T10:40:41;6.28;;;3.42;;
35074;SDS011;21260;34.984;32.490;2023-06-26T10:43:14;6.93;;;3.28;;
35074;SDS011;21260;34.984;32.490;2023-06-26T10:45:45;6.27;;;3.67;;
35074;SDS011;21260;34.984;32.490;2023-06-26T10:48:28;7.50;;;3.80;;
35074;SDS011;21260;34.984;32.490;2023-06-26T10:50:55;6.82;;;3.72;;
35074;SDS011;21260;34.984;32.490;2023-06-26T10:53:22;7.57;;;3.75;;
35074;SDS011;21260;34.984;32.490;2023-06-26T10:56:02;8.30;;;4.35;;
35074;SDS011;21260;34.984;32.490;2023-06-26T11:03:42;8.10;;;3.60;;
35074;SDS011;21260;34.984;32.490;2023-06-26T11:09:37;6.53;;;3.90;;
35074;SDS011;21260;34.984;32.490;2023-06-26T11:12:38;6.43;;;3.43;;
35074;SDS011;21260;34.984;32.490;2023-06-26T11:15:12;5.37;;;3.20;;
35074;SDS011;21260;34.984;32.490;2023-06-26T11:17:44;7.00;;;3.40;;
35074;SDS011;21260;34.984;32.490;2023-06-26T11:20:12;6.45;;;3.40;;
35074;SDS011;21260;34.984;32.490;2023-06-26T11:22:43;6.45;;;3.40;;
35074;SDS011;21260;34.984;32.490;2023-06-26T11:25:10;3.85;;;3.00;;
35074;SDS011;21260;34.984;32.490;2023-06-26T11:30:11;3.77;;;3.03;;
35074;SDS011;21260;34.984;32.490;2023-06-26T11:32:48;6.55;;;3.15;;
35074;SDS011;21260;34.984;32.490;2023-06-26T11:35:24;7.72;;;3.50;;
35074;SDS011;21260;34.984;32.490;2023-06-26T11:37:58;5.93;;;3.67;;
35074;SDS011;21260;34.984;32.490;2023-06-26T11:40:29;5.80;;;3.30;;
35074;SDS011;21260;34.984;32.490;2023-06-26T12:27:11;4.57;;;3.35;;
35074;SDS011;21260;34.984;32.490;2023-06-26T12:29:49;3.90;;;2.95;;
35074;SDS011;21260;34.984;32.490;2023-06-26T12:32:18;5.97;;;3.30;;
35074;SDS011;21260;34.984;32.490;2023-06-26T12:34:48;5.13;;;3.15;;
35074;SDS011;21260;34.984;32.490;2023-06-26T12:40:17;6.85;;;3.33;;
35074;SDS011;21260;34.984;32.490;2023-06-26T12:42:47;8.13;;;3.23;;
35074;SDS011;21260;34.984;32.490;2023-06-26T12:45:14;5.25;;;3.00;;
35074;SDS011;21260;34.984;32.490;2023-06-26T12:47:41;4.15;;;3.00;;
35074;SDS011;21260;34.984;32.490;2023-06-26T12:50:08;7.32;;;3.35;;
35074;SDS011;21260;34.984;32.490;2023-06-26T12:52:35;7.40;;;3.33;;
35074;SDS011;21260;34.984;32.490;2023-06-26T12:55:01;6.77;;;3.70;;
35074;SDS011;21260;34.984;32.490;2023-06-26T12:57:27;5.80;;;3.40;;
35074;SDS011;21260;34.984;32.490;2023-06-26T12:59:54;6.20;;;3.20;;
35074;SDS011;21260;34.984;32.490;2023-06-26T13:02:20;5.00;;;3.50;;
35074;SDS011;21260;34.984;32.490;2023-06-26T13:07:41;7.38;;;3.70;;
35074;SDS011;21260;34.984;32.490;2023-06-26T13:10:07;7.67;;;3.77;;
35074;SDS011;21260;34.984;32.490;2023-06-26T13:12:33;8.27;;;3.75;;
35074;SDS011;21260;34.984;32.490;2023-06-26T13:15:00;6.05;;;3.55;;
35074;SDS011;21260;34.984;32.490;2023-06-26T13:17:26;5.82;;;3.40;;
35074;SDS011;21260;34.984;32.490;2023-06-26T13:19:52;6.57;;;3.55;;
35074;SDS011;21260;34.984;32.490;2023-06-26T13:22:19;7.22;;;3.72;;
35074;SDS011;21260;34.984;32.490;2023-06-26T13:49:46;8.43;;;3.93;;
35074;SDS011;21260;34.984;32.490;2023-06-26T13:52:13;5.85;;;3.88;;
35074;SDS011;21260;34.984;32.490;2023-06-26T13:54:39;6.35;;;3.90;;
35074;SDS011;21260;34.984;32.490;2023-06-26T13:57:06;6.55;;;3.80;;
35074;SDS011;21260;34.984;32.490;2023-06-26T13:59:33;6.93;;;3.80;;
35074;SDS011;21260;34.984;32.490;2023-06-26T14:02:02;5.28;;;3.33;;
35074;SDS011;21260;34.984;32.490;2023-06-26T14:04:30;5.13;;;3.22;;
35074;SDS011;21260;34.984;32.490;2023-06-26T14:06:57;5.32;;;3.40;;
35074;SDS011;21260;34.984;32.490;2023-06-26T14:09:23;6.32;;;3.42;;
35074;SDS011;21260;34.984;32.490;2023-06-26T14:11:50;5.93;;;3.60;;
35074;SDS011;21260;34.984;32.490;2023-06-26T14:14:16;7.32;;;3.83;;
35074;SDS011;21260;34.984;32.490;2023-06-26T14:16:42;7.10;;;3.60;;
35074;SDS011;21260;34.984;32.490;2023-06-26T14:19:09;5.40;;;3.70;;
35074;SDS011;21260;34.984;32.490;2023-06-26T14:21:39;8.10;;;3.90;;
35074;SDS011;21260;34.984;32.490;2023-06-26T14:24:06;6.20;;;4.07;;
35074;SDS011;21260;34.984;32.490;2023-06-26T14:26:32;6.38;;;4.00;;
35074;SDS011;21260;34.984;32.490;2023-06-26T14:28:59;6.68;;;3.75;;
35074;SDS011;21260;34.984;32.490;2023-06-26T14:31:26;8.73;;;4.00;;
35074;SDS011;21260;34.984;32.490;2023-06-26T14:33:52;8.50;;;3.90;;
35074;SDS011;21260;34.984;32.490;2023-06-26T14:36:18;6.90;;;3.80;;
35074;SDS011;21260;34.984;32.490;2023-06-26T14:38:45;4.43;;;3.40;;
35074;SDS011;21260;34.984;32.490;2023-06-26T14:41:11;7.70;;;3.55;;
35074;SDS011;21260;34.984;32.490;2023-06-26T14:43:38;5.97;;;3.55;;
35074;SDS011;21260;34.984;32.490;2023-06-26T14:46:04;7.38;;;3.70;;
35074;SDS011;21260;34.984;32.490;2023-06-26T14:48:31;5.53;;;3.50;;
35074;SDS011;21260;34.984;32.490;2023-06-26T14:50:57;5.78;;;3.80;;
35074;SDS011;21260;34.984;32.490;2023-06-26T14:53:25;7.00;;;3.60;;
35074;SDS011;21260;34.984;32.490;2023-06-26T14:55:51;5.68;;;3.80;;
35074;SDS011;21260;34.984;32.490;2023-06-26T14:58:18;5.78;;;3.60;;
35074;SDS011;21260;34.984;32.490;2023-06-26T15:00:44;7.60;;;3.92;;
35074;SDS011;21260;34.984;32.490;2023-06-26T15:03:10;9.63;;;3.75;;
35074;SDS011;21260;34.984;32.490;2023-06-26T15:05:37;10.07;;;4.20;;
35074;SDS011;21260;34.984;32.490;2023-06-26T15:08:03;5.80;;;4.00;;
35074;SDS011;21260;34.984;32.490;2023-06-26T15:10:30;5.03;;;3.47;;
35074;SDS011;21260;34.984;32.490;2023-06-26T15:12:56;6.67;;;3.87;;
35074;SDS011;21260;34.984;32.490;2023-06-26T15:15:23;7.25;;;3.45;;
35074;SDS011;21260;34.984;32.490;2023-06-26T15:17:50;5.70;;;3.70;;
35074;SDS011;21260;34.984;32.490;2023-06-26T15:20:16;5.43;;;3.60;;
35074;SDS011;21260;34.984;32.490;2023-06-26T15:22:42;5.78;;;3.58;;
35074;SDS011;21260;34.984;32.490;2023-06-26T15:25:09;5.78;;;3.35;;
35074;SDS011;21260;34.984;32.490;2023-06-26T15:27:35;7.72;;;3.92;;
35074;SDS011;21260;34.984;32.490;2023-06-26T15:30:02;6.15;;;3.58;;
35074;SDS011;21260;34.984;32.490;2023-06-26T15:32:29;6.22;;;3.67;;
35074;SDS011;21260;34.984;32.490;2023-06-26T15:34:55;5.22;;;3.70;;
35074;SDS011;21260;34.984;32.490;2023-06-26T15:37:21;8.77;;;3.53;;
35074;SDS011;21260;34.984;32.490;2023-06-26T15:39:48;8.05;;;3.78;;
35074;SDS011;21260;34.984;32.490;2023-06-26T15:42:14;7.07;;;3.60;;
35074;SDS011;21260;34.984;32.490;2023-06-26T15:44:40;10.10;;;4.00;;
35074;SDS011;21260;34.984;32.490;2023-06-26T15:47:06;5.28;;;3.72;;
35074;SDS011;21260;34.984;32.490;2023-06-26T15:49:33;6.38;;;3.85;;
35074;SDS011;21260;34.984;32.490;2023-06-26T15:51:59;6.47;;;3.70;;
35074;SDS011;21260;34.984;32.490;2023-06-26T15:54:25;7.22;;;4.07;;
35074;SDS011;21260;34.984;32.490;2023-06-26T15:56:52;5.90;;;3.63;;
35074;SDS011;21260;34.984;32.490;2023-06-26T15:59:18;4.83;;;3.70;;
35074;SDS011;21260;34.984;32.490;2023-06-26T16:01:44;4.47;;;3.55;;
35074;SDS011;21260;34.984;32.490;2023-06-26T16:04:11;5.25;;;3.78;;
35074;SDS011;21260;34.984;32.490;2023-06-26T16:06:37;6.47;;;3.50;;
35074;SDS011;21260;34.984;32.490;2023-06-26T16:09:04;5.70;;;3.50;;
35074;SDS011;21260;34.984;32.490;2023-06-26T16:11:31;5.50;;;3.40;;
35074;SDS011;21260;34.984;32.490;2023-06-26T16:13:57;4.53;;;3.40;;
35074;SDS011;21260;34.984;32.490;2023-06-26T16:16:23;4.77;;;3.40;;
35074;SDS011;21260;34.984;32.490;2023-06-26T16:18:50;5.93;;;3.30;;
35074;SDS011;21260;34.984;32.490;2023-06-26T16:21:16;5.45;;;3.78;;
35074;SDS011;21260;34.984;32.490;2023-06-26T16:23:42;6.93;;;3.80;;
35074;SDS011;21260;34.984;32.490;2023-06-26T16:26:09;5.88;;;3.63;;
35074;SDS011;21260;34.984;32.490;2023-06-26T16:28:35;6.50;;;4.00;;
35074;SDS011;21260;34.984;32.490;2023-06-26T16:31:01;5.63;;;3.70;;
35074;SDS011;21260;34.984;32.490;2023-06-26T16:33:28;6.13;;;3.72;;
35074;SDS011;21260;34.984;32.490;2023-06-26T16:35:54;8.77;;;3.50;;
35074;SDS011;21260;34.984;32.490;2023-06-26T16:38:20;11.63;;;4.45;;
35074;SDS011;21260;34.984;32.490;2023-06-26T16:40:47;5.80;;;3.63;;
35074;SDS011;21260;34.984;32.490;2023-06-26T16:43:13;7.68;;;3.78;;
35074;SDS011;21260;34.984;32.490;2023-06-26T16:45:40;7.78;;;3.97;;
35074;SDS011;21260;34.984;32.490;2023-06-26T16:48:07;6.32;;;3.38;;
35074;SDS011;21260;34.984;32.490;2023-06-26T16:50:33;7.03;;;3.42;;
35074;SDS011;21260;34.984;32.490;2023-06-26T16:52:59;4.75;;;3.42;;
35074;SDS011;21260;34.984;32.490;2023-06-26T16:55:26;7.57;;;3.55;;
35074;SDS011;21260;34.984;32.490;2023-06-26T16:57:52;6.47;;;3.42;;
35074;SDS011;21260;34.984;32.490;2023-06-26T17:00:18;8.07;;;3.60;;
35074;SDS011;21260;34.984;32.490;2023-06-26T17:02:45;5.00;;;3.60;;
35074;SDS011;21260;34.984;32.490;2023-06-26T17:05:12;6.70;;;3.77;;
35074;SDS011;21260;34.984;32.490;2023-06-26T17:07:38;6.00;;;3.88;;
35074;SDS011;21260;34.984;32.490;2023-06-26T17:10:05;6.85;;;3.55;;
35074;SDS011;21260;34.984;32.490;2023-06-26T17:12:31;6.35;;;3.38;;
35074;SDS011;21260;34.984;32.490;2023-06-26T17:14:58;6.50;;;3.38;;
35074;SDS011;21260;34.984;32.490;2023-06-26T17:17:25;5.78;;;3.17;;
35074;SDS011;21260;34.984;32.490;2023-06-26T17:19:51;4.75;;;3.50;;
35074;SDS011;21260;34.984;32.490;2023-06-26T17:22:18;4.68;;;3.38;;
35074;SDS011;21260;34.984;32.490;2023-06-26T17:24:44;4.28;;;3.13;;
35074;SDS011;21260;34.984;32.490;2023-06-26T17:27:11;5.25;;;3.20;;
35074;SDS011;21260;34.984;32.490;2023-06-26T17:29:40;5.95;;;3.40;;
35074;SDS011;21260;34.984;32.490;2023-06-26T17:32:07;5.90;;;3.13;;
35074;SDS011;21260;34.984;32.490;2023-06-26T17:34:34;4.88;;;3.25;;
35074;SDS011;21260;34.984;32.490;2023-06-26T17:37:01;8.70;;;3.47;;
35074;SDS011;21260;34.984;32.490;2023-06-26T17:39:28;5.35;;;3.13;;
35074;SDS011;21260;34.984;32.490;2023-06-26T17:41:54;6.20;;;3.35;;
35074;SDS011;21260;34.984;32.490;2023-06-26T17:44:21;6.17;;;3.03;;
35074;SDS011;21260;34.984;32.490;2023-06-26T17:46:50;6.97;;;3.30;;
35074;SDS011;21260;34.984;32.490;2023-06-26T17:49:16;7.23;;;3.57;;
35074;SDS011;21260;34.984;32.490;2023-06-26T17:51:42;6.60;;;3.50;;
35074;SDS011;21260;34.984;32.490;2023-06-26T17:54:09;8.48;;;3.60;;
35074;SDS011;21260;34.984;32.490;2023-06-26T17:56:35;8.05;;;3.80;;
35074;SDS011;21260;34.984;32.490;2023-06-26T17:59:01;7.85;;;4.00;;
35074;SDS011;21260;34.984;32.490;2023-06-26T18:01:29;7.07;;;4.00;;
35074;SDS011;21260;34.984;32.490;2023-06-26T18:03:55;8.60;;;3.75;;
35074;SDS011;21260;34.984;32.490;2023-06-26T18:06:22;5.78;;;3.63;;
35074;SDS011;21260;34.984;32.490;2023-06-26T18:08:48;8.25;;;4.00;;
35074;SDS011;21260;34.984;32.490;2023-06-26T18:11:16;8.35;;;3.97;;
35074;SDS011;21260;34.984;32.490;2023-06-26T18:13:43;5.75;;;3.65;;
35074;SDS011;21260;34.984;32.490;2023-06-26T18:16:09;6.50;;;3.60;;